createdAt,value
2023-04-02T00:01:54.599Z,61.43
2023-04-02T00:04:23.419Z,61.89
2023-04-02T00:06:49.869Z,61.69
2023-04-02T00:09:25.093Z,61.89
2023-04-02T00:11:51.498Z,60.65
2023-04-02T00:14:17.958Z,60.74
2023-04-02T00:16:44.451Z,60.20
2023-04-02T00:19:18.364Z,60.97
2023-04-02T00:21:44.956Z,61.07
2023-04-02T00:24:11.397Z,60.90
2023-04-02T00:26:37.999Z,61.27
2023-04-02T00:29:04.590Z,61.34
2023-04-02T00:31:31.060Z,61.45
2023-04-02T00:33:57.514Z,60.92
2023-04-02T00:36:23.951Z,60.82
2023-04-02T00:38:50.380Z,60.41
2023-04-02T00:41:16.891Z,61.20
2023-04-02T00:43:43.337Z,61.25
2023-04-02T00:46:09.864Z,61.58
2023-04-02T00:48:36.366Z,60.79
2023-04-02T00:51:02.769Z,61.18
2023-04-02T00:53:29.201Z,61.45
2023-04-02T00:55:55.648Z,62.00
2023-04-02T00:58:22.267Z,61.46
2023-04-02T01:00:50.629Z,61.94
2023-04-02T01:03:17.233Z,62.42
2023-04-02T01:05:43.947Z,62.35
2023-04-02T01:11:01.358Z,63.14
2023-04-02T01:13:27.823Z,63.01
2023-04-02T01:15:54.271Z,63.03
2023-04-02T01:18:25.290Z,63.11
2023-04-02T01:20:51.680Z,63.21
2023-04-02T01:23:18.328Z,63.27
2023-04-02T01:25:45.925Z,62.67
2023-04-02T01:28:19.898Z,62.08
2023-04-02T01:30:46.227Z,62.46
2023-04-02T01:33:12.594Z,63.21
2023-04-02T01:35:39.482Z,62.78
2023-04-02T01:38:05.978Z,62.35
2023-04-02T01:40:32.406Z,62.07
2023-04-02T01:42:58.854Z,62.10
2023-04-02T01:48:10.524Z,62.08
2023-04-02T01:50:37.045Z,61.89
2023-04-02T01:53:03.589Z,62.34
2023-04-02T01:55:30.221Z,62.97
2023-04-02T01:57:56.804Z,63.36
2023-04-02T02:00:23.356Z,62.39
2023-04-02T02:02:49.806Z,62.70
2023-04-02T02:05:17.573Z,62.94
2023-04-02T02:07:44.070Z,63.04
2023-04-02T02:10:10.760Z,62.56
2023-04-02T02:15:18.560Z,62.81
2023-04-02T02:17:45.156Z,63.79
2023-04-02T02:20:11.602Z,62.95
2023-04-02T02:22:38.079Z,63.23
2023-04-02T02:25:04.586Z,63.34
2023-04-02T02:30:11.439Z,63.80
2023-04-02T02:32:37.950Z,62.59
2023-04-02T02:35:04.464Z,62.99
2023-04-02T02:37:33.923Z,63.58
2023-04-02T02:40:00.363Z,62.76
2023-04-02T02:42:26.902Z,62.90
2023-04-02T02:44:53.380Z,63.22
2023-04-02T02:47:19.896Z,64.00
2023-04-02T02:49:46.451Z,63.56
2023-04-02T02:52:12.920Z,63.50
2023-04-02T02:54:39.425Z,63.17
2023-04-02T02:57:05.845Z,63.65
2023-04-02T02:59:34.341Z,63.03
2023-04-02T03:02:00.837Z,62.79
2023-04-02T03:04:27.425Z,63.84
2023-04-02T03:07:01.298Z,62.97
2023-04-02T03:09:29.936Z,63.44
2023-04-02T03:11:58.037Z,63.81
2023-04-02T03:14:24.684Z,63.62
2023-04-02T03:16:51.217Z,63.29
2023-04-02T03:19:17.682Z,63.18
2023-04-02T03:21:44.148Z,62.90
2023-04-02T03:24:10.630Z,62.96
2023-04-02T03:26:37.320Z,62.34
2023-04-02T03:29:07.639Z,62.79
2023-04-02T03:31:34.136Z,62.74
2023-04-02T03:34:00.591Z,63.70
2023-04-02T03:36:27.036Z,63.76
2023-04-02T03:38:53.614Z,63.96
2023-04-02T03:41:20.071Z,63.87
2023-04-02T03:43:46.689Z,64.14
2023-04-02T03:46:13.275Z,63.39
2023-04-02T03:48:39.735Z,63.96
2023-04-02T03:51:06.276Z,64.07
2023-04-02T03:56:14.094Z,62.92
2023-04-02T03:58:40.608Z,63.53
2023-04-02T04:01:07.031Z,63.13
2023-04-02T04:03:33.469Z,63.19
2023-04-02T04:05:59.898Z,63.39
2023-04-02T04:08:26.330Z,63.75
2023-04-02T04:10:52.930Z,64.21
2023-04-02T04:13:19.445Z,63.02
2023-04-02T04:15:46.003Z,62.91
2023-04-02T04:18:12.491Z,63.10
2023-04-02T04:20:39.004Z,63.38
2023-04-02T04:23:05.616Z,63.50
2023-04-02T04:25:32.091Z,63.68
2023-04-02T04:27:58.615Z,63.62
2023-04-02T04:30:25.174Z,63.79
2023-04-02T04:32:51.951Z,63.81
2023-04-02T04:35:19.876Z,63.79
2023-04-02T04:37:46.328Z,63.01
2023-04-02T04:40:12.954Z,62.14
2023-04-02T04:42:39.585Z,61.40
2023-04-02T04:45:06.128Z,61.33
2023-04-02T04:47:32.597Z,61.04
2023-04-02T04:50:00.341Z,59.50
2023-04-02T04:52:26.838Z,59.98
2023-04-02T04:54:53.338Z,60.72
2023-04-02T04:57:19.783Z,61.36
2023-04-02T04:59:46.457Z,61.41
2023-04-02T05:02:12.861Z,61.83
2023-04-02T05:04:39.291Z,61.40
2023-04-02T05:07:05.751Z,61.16
2023-04-02T05:09:32.169Z,61.07
2023-04-02T05:11:58.653Z,60.95
2023-04-02T05:14:25.158Z,61.34
2023-04-02T05:16:51.633Z,60.91
2023-04-02T05:19:18.113Z,61.02
2023-04-02T05:21:44.584Z,61.05
2023-04-02T05:24:11.071Z,60.76
2023-04-02T05:26:37.534Z,60.58
2023-04-02T05:29:04.017Z,61.21
2023-04-02T05:31:30.516Z,61.21
2023-04-02T05:33:57.139Z,61.65
2023-04-02T05:36:26.236Z,62.10
2023-04-02T05:38:52.750Z,62.00
2023-04-02T05:41:19.262Z,61.97
2023-04-02T05:43:45.818Z,62.05
2023-04-02T05:46:12.319Z,62.03
2023-04-02T05:48:38.748Z,62.35
2023-04-02T05:51:05.220Z,61.98
2023-04-02T05:53:33.341Z,62.10
2023-04-02T05:55:59.833Z,61.40
2023-04-02T06:00:55.638Z,61.56
2023-04-02T06:03:22.133Z,62.31
2023-04-02T06:05:48.598Z,61.84
2023-04-02T06:08:15.112Z,62.44
2023-04-02T06:10:41.681Z,63.33
2023-04-02T06:13:08.365Z,63.55
2023-04-02T06:15:37.251Z,63.61
2023-04-02T06:18:03.770Z,63.80
2023-04-02T06:20:30.240Z,63.52
2023-04-02T06:23:01.144Z,63.38
2023-04-02T06:25:27.574Z,62.93
2023-04-02T06:27:54.000Z,63.19
2023-04-02T06:30:20.483Z,63.46
2023-04-02T06:32:46.944Z,63.57
2023-04-02T06:35:13.322Z,64.40
2023-04-02T06:37:39.865Z,65.32
2023-04-02T06:40:06.289Z,66.32
2023-04-02T06:42:32.612Z,66.01
2023-04-02T06:44:59.088Z,66.21
2023-04-02T06:47:25.657Z,66.06
2023-04-02T06:49:52.145Z,65.36
2023-04-02T06:52:18.675Z,65.93
2023-04-02T06:54:45.128Z,66.19
2023-04-02T06:57:11.676Z,65.86
2023-04-02T06:59:40.273Z,66.07
2023-04-02T07:02:06.842Z,66.19
2023-04-02T07:04:33.520Z,65.55
2023-04-02T07:07:00.022Z,65.45
2023-04-02T07:09:26.556Z,65.60
2023-04-02T07:11:52.996Z,65.82
2023-04-02T07:14:20.462Z,65.41
2023-04-02T07:16:57.893Z,65.44
2023-04-02T07:19:24.294Z,66.40
2023-04-02T07:21:50.705Z,66.66
2023-04-02T07:24:17.168Z,65.45
2023-04-02T07:26:43.623Z,66.24
2023-04-02T07:29:10.028Z,67.17
2023-04-02T07:31:36.507Z,66.84
2023-04-02T07:34:03.042Z,66.87
2023-04-02T07:36:29.400Z,66.51
2023-04-02T07:38:55.745Z,65.73
2023-04-02T07:41:22.098Z,65.53
2023-04-02T07:43:48.431Z,65.62
2023-04-02T07:46:14.876Z,64.69
2023-04-02T07:48:41.284Z,64.98
2023-04-02T07:51:07.733Z,64.09
2023-04-02T07:53:34.085Z,64.11
2023-04-02T07:56:00.440Z,63.67
2023-04-02T07:58:26.776Z,63.58
2023-04-02T08:01:01.484Z,63.42
2023-04-02T08:03:27.888Z,62.63
2023-04-02T08:05:54.450Z,62.12
2023-04-02T08:08:20.812Z,62.77
2023-04-02T08:10:47.243Z,62.32
2023-04-02T08:13:13.683Z,62.25
2023-04-02T08:15:40.026Z,61.78
2023-04-02T08:18:06.559Z,62.30
2023-04-02T08:20:33.018Z,62.37
2023-04-02T08:23:02.034Z,62.73
2023-04-02T08:25:28.591Z,63.11
2023-04-02T08:27:54.979Z,62.61
2023-04-02T08:30:21.353Z,62.13
2023-04-02T08:32:47.815Z,62.14
2023-04-02T08:35:14.254Z,62.64
2023-04-02T08:37:40.719Z,62.90
2023-04-02T08:40:07.101Z,62.06
2023-04-02T08:42:33.484Z,63.03
2023-04-02T08:45:03.872Z,63.87
2023-04-02T08:47:32.419Z,63.33
2023-04-02T08:50:06.056Z,63.92
2023-04-02T08:52:32.563Z,62.56
2023-04-02T08:54:59.253Z,64.68
2023-04-02T08:57:25.931Z,64.17
2023-04-02T08:59:52.695Z,62.57
2023-04-02T09:02:22.101Z,63.78
2023-04-02T09:04:48.614Z,64.04
2023-04-02T09:07:15.045Z,63.37
2023-04-02T09:09:41.471Z,63.07
2023-04-02T09:12:07.951Z,63.09
2023-04-02T09:14:34.354Z,63.34
2023-04-02T09:17:00.826Z,63.35
2023-04-02T09:19:27.309Z,64.43
2023-04-02T09:21:53.771Z,63.18
2023-04-02T09:24:20.242Z,63.55
2023-04-02T09:26:46.706Z,62.82
2023-04-02T09:29:13.209Z,62.05
2023-04-02T09:31:39.698Z,62.16
2023-04-02T09:34:06.139Z,63.73
2023-04-02T09:36:32.592Z,63.35
2023-04-02T09:38:59.028Z,63.15
2023-04-02T09:41:25.406Z,63.97
2023-04-02T09:43:51.819Z,63.75
2023-04-02T09:46:18.204Z,64.22
2023-04-02T09:48:44.659Z,65.31
2023-04-02T09:53:51.364Z,63.89
2023-04-02T09:56:17.910Z,63.83
2023-04-02T09:58:45.093Z,63.32
2023-04-02T10:01:11.647Z,63.55
2023-04-02T10:03:38.105Z,62.86
2023-04-02T10:06:04.473Z,63.44
2023-04-02T10:08:30.916Z,63.03
2023-04-02T10:10:57.431Z,62.57
2023-04-02T10:13:23.964Z,63.55
2023-04-02T10:15:50.579Z,63.33
2023-04-02T10:18:17.107Z,63.62
2023-04-02T10:20:50.972Z,63.31
2023-04-02T10:23:18.018Z,63.06
2023-04-02T10:25:44.453Z,62.88
2023-04-02T10:28:10.872Z,62.83
2023-04-02T10:30:37.328Z,62.80
2023-04-02T10:33:03.732Z,62.23
2023-04-02T10:35:30.193Z,63.46
2023-04-02T10:37:56.611Z,62.80
2023-04-02T10:40:23.006Z,63.16
2023-04-02T10:42:49.426Z,63.11
2023-04-02T10:45:15.884Z,62.50
2023-04-02T10:47:42.405Z,62.32
2023-04-02T10:50:08.911Z,62.15
2023-04-02T10:52:35.413Z,61.43
2023-04-02T10:55:01.883Z,60.82
2023-04-02T10:57:28.410Z,61.04
2023-04-02T10:59:54.874Z,60.67
2023-04-02T11:02:21.290Z,60.52
2023-04-02T11:04:49.048Z,59.83
2023-04-02T11:07:15.619Z,60.54
2023-04-02T11:09:42.019Z,61.28
2023-04-02T11:12:08.414Z,61.18
2023-04-02T11:14:34.944Z,61.70
2023-04-02T11:17:01.381Z,60.90
2023-04-02T11:19:27.864Z,61.60
2023-04-02T11:21:59.398Z,60.49
2023-04-02T11:24:26.281Z,60.88
2023-04-02T11:26:52.720Z,61.37
2023-04-02T11:29:19.099Z,61.79
2023-04-02T11:31:45.571Z,62.04
2023-04-02T11:34:12.019Z,62.71
2023-04-02T11:36:38.428Z,60.78
2023-04-02T11:39:16.558Z,61.65
2023-04-02T11:41:44.086Z,61.78
2023-04-02T11:44:10.573Z,63.34
2023-04-02T11:46:37.038Z,63.12
2023-04-02T11:49:03.514Z,63.25
2023-04-02T11:51:30.013Z,64.12
2023-04-02T11:53:56.439Z,62.31
2023-04-02T11:56:22.855Z,63.21
2023-04-02T11:58:49.338Z,62.93
2023-04-02T12:01:15.778Z,63.00
2023-04-02T12:03:42.223Z,61.42
2023-04-02T12:06:08.745Z,61.89
2023-04-02T12:08:44.270Z,61.67
2023-04-02T12:11:17.237Z,62.03
2023-04-02T12:13:43.630Z,62.79
2023-04-02T12:16:10.078Z,63.19
2023-04-02T12:18:36.592Z,63.25
2023-04-02T12:21:03.114Z,63.22
2023-04-02T12:23:29.583Z,62.67
2023-04-02T12:25:55.966Z,61.94
2023-04-02T12:28:22.409Z,62.46
2023-04-02T12:30:48.776Z,62.60
2023-04-02T12:33:15.200Z,63.29
2023-04-02T12:35:41.738Z,62.25
2023-04-02T12:38:08.217Z,60.20
2023-04-02T12:40:35.101Z,58.56
2023-04-02T12:43:01.772Z,59.43
2023-04-02T12:45:29.564Z,58.17
2023-04-02T12:47:56.495Z,58.44
2023-04-02T12:50:22.933Z,57.97
2023-04-02T12:52:49.349Z,59.82
2023-04-02T12:55:15.862Z,59.73
2023-04-02T12:57:42.423Z,61.51
2023-04-02T13:00:09.031Z,63.79
2023-04-02T13:02:35.511Z,60.10
2023-04-02T13:05:03.854Z,61.59
2023-04-02T13:07:30.294Z,61.49
2023-04-02T13:09:58.663Z,61.28
2023-04-02T13:12:25.064Z,60.56
2023-04-02T13:14:51.564Z,61.27
2023-04-02T13:17:18.110Z,60.83
2023-04-02T13:19:44.581Z,60.90
2023-04-02T13:24:51.342Z,60.55
2023-04-02T13:27:19.530Z,60.87
2023-04-02T13:29:46.057Z,60.75
2023-04-02T13:32:12.439Z,60.73
2023-04-02T13:34:38.840Z,59.77
2023-04-02T13:37:05.292Z,59.76
2023-04-02T13:39:31.822Z,59.94
2023-04-02T13:42:00.766Z,60.57
2023-04-02T13:44:27.290Z,61.52
2023-04-02T13:46:53.792Z,58.51
2023-04-02T13:49:20.251Z,60.44
2023-04-02T13:51:46.695Z,59.66
2023-04-02T13:54:13.148Z,60.10
2023-04-02T13:59:19.999Z,58.80
2023-04-02T14:01:46.558Z,58.73
2023-04-02T14:04:13.035Z,59.42
2023-04-02T14:06:39.504Z,59.33
2023-04-02T14:09:05.898Z,59.77
2023-04-02T14:11:32.356Z,58.70
2023-04-02T14:13:58.851Z,59.61
2023-04-02T14:16:25.355Z,58.67
2023-04-02T14:18:51.816Z,58.92
2023-04-02T14:21:18.202Z,57.59
2023-04-02T14:23:44.687Z,57.07
2023-04-02T14:26:11.104Z,58.95
2023-04-02T14:28:37.526Z,58.26
2023-04-02T14:31:04.110Z,57.59
2023-04-02T14:33:30.524Z,58.21
2023-04-02T14:35:57.026Z,60.01
2023-04-02T14:38:23.533Z,59.34
2023-04-02T14:40:49.974Z,58.76
2023-04-02T14:43:16.469Z,58.78
2023-04-02T14:45:42.919Z,55.04
2023-04-02T14:48:09.381Z,52.84
2023-04-02T14:50:35.969Z,52.67
2023-04-02T14:53:02.574Z,54.42
2023-04-02T14:55:28.993Z,52.88
2023-04-02T14:57:55.473Z,52.40
2023-04-02T15:00:21.932Z,55.03
2023-04-02T15:02:48.392Z,56.67
2023-04-02T15:05:17.551Z,54.99
2023-04-02T15:07:45.030Z,54.68
2023-04-02T15:10:12.619Z,55.26
2023-04-02T15:12:39.105Z,53.40
2023-04-02T15:15:05.594Z,54.31
2023-04-02T15:17:32.178Z,57.28
2023-04-02T15:19:58.637Z,61.00
2023-04-02T15:22:25.247Z,63.13
2023-04-02T15:24:51.654Z,61.70
2023-04-02T15:27:24.353Z,61.86
2023-04-02T15:29:52.130Z,62.34
2023-04-02T15:32:18.563Z,62.10
2023-04-02T15:34:44.985Z,61.19
2023-04-02T15:39:51.879Z,60.86
2023-04-02T15:42:18.332Z,61.11
2023-04-02T15:44:44.798Z,60.54
2023-04-02T15:47:11.263Z,60.76
2023-04-02T15:49:37.718Z,60.30
2023-04-02T15:52:04.162Z,61.34
2023-04-02T15:54:30.605Z,60.38
2023-04-02T15:56:57.035Z,60.07
2023-04-02T15:59:23.421Z,59.48
2023-04-02T16:01:49.803Z,59.90
2023-04-02T16:04:18.158Z,59.81
2023-04-02T16:09:26.303Z,59.21
2023-04-02T16:11:52.794Z,58.87
2023-04-02T16:14:19.313Z,58.96
2023-04-02T16:16:45.786Z,58.57
2023-04-02T16:19:15.829Z,58.62
2023-04-02T16:21:43.332Z,58.15
2023-04-02T16:24:09.796Z,57.47
2023-04-02T16:26:36.229Z,56.90
2023-04-02T16:29:02.638Z,56.55
2023-04-02T16:31:29.131Z,55.22
2023-04-02T16:33:55.527Z,50.83
2023-04-02T16:36:22.037Z,50.90
2023-04-02T16:38:48.604Z,51.11
2023-04-02T16:41:14.992Z,50.93
2023-04-02T16:43:41.469Z,50.84
2023-04-02T16:46:07.925Z,50.60
2023-04-02T16:48:39.081Z,52.64
2023-04-02T16:51:05.529Z,53.49
2023-04-02T16:53:31.886Z,54.45
2023-04-02T16:55:58.374Z,55.47
2023-04-02T16:58:24.827Z,56.42
2023-04-02T17:00:51.208Z,56.96
2023-04-02T17:03:17.750Z,58.19
2023-04-02T17:05:44.253Z,58.05
2023-04-02T17:08:12.863Z,58.82
2023-04-02T17:10:39.308Z,57.84
2023-04-02T17:13:05.688Z,59.16
2023-04-02T17:15:32.053Z,59.65
2023-04-02T17:17:58.478Z,59.89
2023-04-02T17:20:24.862Z,60.82
2023-04-02T17:22:51.222Z,60.53
2023-04-02T17:31:03.790Z,61.61
2023-04-02T17:39:11.016Z,62.95
2023-04-02T17:41:37.469Z,62.91
2023-04-02T17:44:09.267Z,63.11
2023-04-02T17:46:35.708Z,63.06
2023-04-02T17:49:02.145Z,62.74
2023-04-02T17:51:28.534Z,63.06
2023-04-02T17:53:54.946Z,63.53
2023-04-02T17:56:21.455Z,63.55
2023-04-02T17:58:47.880Z,63.72
2023-04-02T18:01:14.419Z,64.57
2023-04-02T18:03:40.957Z,64.33
2023-04-02T18:06:08.773Z,64.16
2023-04-02T18:08:35.288Z,63.13
2023-04-02T18:11:01.740Z,63.30
2023-04-02T18:13:28.182Z,63.40
2023-04-02T18:15:54.544Z,64.23
2023-04-02T18:18:28.135Z,64.69
2023-04-02T18:20:54.623Z,64.41
2023-04-02T18:23:21.161Z,63.79
2023-04-02T18:25:47.591Z,63.89
2023-04-02T18:28:14.863Z,63.97
2023-04-02T18:30:53.797Z,63.86
2023-04-02T18:33:20.770Z,63.73
2023-04-02T18:35:47.263Z,63.76
2023-04-02T18:38:13.754Z,63.05
2023-04-02T18:40:40.143Z,62.67
2023-04-02T18:43:06.576Z,62.73
2023-04-02T18:45:32.977Z,62.47
2023-04-02T18:47:59.479Z,61.70
2023-04-02T18:50:25.976Z,62.70
2023-04-02T18:52:52.430Z,62.15
2023-04-02T18:55:18.802Z,61.43
2023-04-02T18:57:45.202Z,61.55
2023-04-02T19:00:11.624Z,61.66
2023-04-02T19:02:38.131Z,61.49
2023-04-02T19:05:04.576Z,62.25
2023-04-02T19:07:30.971Z,61.46
2023-04-02T19:09:57.366Z,61.63
2023-04-02T19:12:23.850Z,61.83
2023-04-02T19:14:51.115Z,62.25
2023-04-02T19:17:18.953Z,61.84
2023-04-02T19:19:45.420Z,62.50
2023-04-02T19:22:11.845Z,62.16
2023-04-02T19:24:38.286Z,62.70
2023-04-02T19:27:04.653Z,63.16
2023-04-02T19:29:32.217Z,62.64
2023-04-02T19:31:58.755Z,62.91
2023-04-02T19:34:25.230Z,62.97
2023-04-02T19:36:51.621Z,62.87
2023-04-02T19:39:18.037Z,63.68
2023-04-02T19:41:44.473Z,63.03
2023-04-02T19:44:11.828Z,62.36
2023-04-02T19:46:39.418Z,63.44
2023-04-02T19:49:05.851Z,64.02
2023-04-02T19:51:32.367Z,64.18
2023-04-02T19:53:58.844Z,63.51
2023-04-02T19:56:25.345Z,63.93
2023-04-02T19:58:51.864Z,64.18
2023-04-02T20:01:18.335Z,63.98
2023-04-02T20:03:44.857Z,64.17
2023-04-02T20:06:11.435Z,64.56
2023-04-02T20:08:37.855Z,64.27
2023-04-02T20:11:04.293Z,64.78
2023-04-02T20:13:30.702Z,64.65
2023-04-02T20:15:57.084Z,64.40
2023-04-02T20:18:23.610Z,64.03
2023-04-02T20:23:30.763Z,63.48
2023-04-02T20:25:57.250Z,63.67
2023-04-02T20:28:23.633Z,64.29
2023-04-02T20:30:50.268Z,64.29
2023-04-02T20:33:16.954Z,64.20
2023-04-02T20:35:43.494Z,63.87
2023-04-02T20:38:09.998Z,63.73
2023-04-02T20:40:36.581Z,63.80
2023-04-02T20:43:03.147Z,63.32
2023-04-02T20:45:29.564Z,63.31
2023-04-02T20:47:56.058Z,64.05
2023-04-02T20:50:22.528Z,64.11
2023-04-02T20:52:48.996Z,64.38
2023-04-02T20:55:16.030Z,63.60
2023-04-02T20:57:43.200Z,63.83
2023-04-02T21:00:09.914Z,64.26
2023-04-02T21:02:37.870Z,63.03
2023-04-02T21:05:04.479Z,63.25
2023-04-02T21:07:35.649Z,63.08
2023-04-02T21:10:02.076Z,62.65
2023-04-02T21:12:28.584Z,63.36
2023-04-02T21:14:54.973Z,63.62
2023-04-02T21:17:21.399Z,63.47
2023-04-02T21:19:47.837Z,63.72
2023-04-02T21:22:14.296Z,63.90
2023-04-02T21:24:40.752Z,64.24
2023-04-02T21:27:07.197Z,63.84
2023-04-02T21:29:33.675Z,64.68
2023-04-02T21:32:03.397Z,64.60
2023-04-02T21:34:34.850Z,64.81
2023-04-02T21:37:01.277Z,63.96
2023-04-02T21:39:27.723Z,64.98
2023-04-02T21:41:54.140Z,64.79
2023-04-02T21:44:20.560Z,64.57
2023-04-02T21:46:47.044Z,64.39
2023-04-02T21:49:13.475Z,63.40
2023-04-02T21:51:40.028Z,63.07
2023-04-02T21:54:06.523Z,63.97
2023-04-02T21:56:32.981Z,64.37
2023-04-02T21:58:59.388Z,64.83
2023-04-02T22:01:27.708Z,65.22
2023-04-02T22:03:54.712Z,65.33
2023-04-02T22:06:21.250Z,64.55
2023-04-02T22:08:47.686Z,63.50
2023-04-02T22:11:15.541Z,62.91
2023-04-02T22:13:42.053Z,63.29
2023-04-02T22:18:58.296Z,62.83
2023-04-02T22:21:24.739Z,63.00
2023-04-02T22:23:51.202Z,63.59
2023-04-02T22:26:17.622Z,64.23
2023-04-02T22:28:44.030Z,64.67
2023-04-02T22:31:10.514Z,65.09
2023-04-02T22:33:37.027Z,65.05
2023-04-02T22:36:03.559Z,65.56
2023-04-02T22:38:30.053Z,66.47
2023-04-02T22:40:57.457Z,65.96
2023-04-02T22:43:23.987Z,66.03
2023-04-02T22:45:50.505Z,66.34
2023-04-02T22:48:17.010Z,66.38
2023-04-02T22:50:43.422Z,65.50
2023-04-02T22:53:09.871Z,65.13
2023-04-02T22:58:20.505Z,64.71
2023-04-02T23:00:46.938Z,65.33
2023-04-02T23:03:13.412Z,65.11
2023-04-02T23:05:39.918Z,64.21
2023-04-02T23:08:06.386Z,64.86
2023-04-02T23:10:32.832Z,64.10
2023-04-02T23:12:59.297Z,64.23
2023-04-02T23:15:25.759Z,64.48
2023-04-02T23:17:52.276Z,63.53
2023-04-02T23:20:18.829Z,63.74
2023-04-02T23:22:45.281Z,64.49
2023-04-02T23:25:11.779Z,65.28
2023-04-02T23:27:38.261Z,65.24
2023-04-02T23:30:04.660Z,64.76
2023-04-02T23:32:31.182Z,64.28
2023-04-02T23:34:57.762Z,63.68
2023-04-02T23:37:24.136Z,63.65
2023-04-02T23:39:52.427Z,63.85
2023-04-02T23:42:18.901Z,64.14
2023-04-02T23:44:45.401Z,63.66
2023-04-02T23:47:11.973Z,64.21
2023-04-02T23:49:38.500Z,64.32
2023-04-02T23:52:05.021Z,64.69
2023-04-02T23:54:31.505Z,63.99
2023-04-02T23:56:57.948Z,63.79
2023-04-02T23:59:27.367Z,64.32
